Time;durP1;ratioP1;P1;durP2;ratioP2;P2;SDS_P1;SDS_P2;PMS_P1;PMS_P2;Temp;Humidity;BMP_temperature;BMP_pressure;BME280_temperature;BME280_humidity;BME280_pressure;Samples;Min_cycle;Max_cycle;Signal;HPM_P1;HPM_P2
2022/01/24 00:00:06;;;;;;;5.63;4.43;;;;;3.90;97848.00;;;;8393324;28;20231;-75
2022/01/24 00:04:09;;;;;;;6.13;3.60;;;;;3.70;97855.00;;;;8397134;28;20747;-75
2022/01/24 00:08:12;;;;;;;6.40;4.23;;;;;3.50;97854.00;;;;8392112;28;20270;-75
2022/01/24 00:12:19;;;;;;;4.30;3.03;;;;;3.30;97860.00;;;;8400358;28;20234;-77
2022/01/24 00:16:30;;;;;;;6.20;4.43;;;;;3.10;97855.00;;;;8388753;28;20234;-77
2022/01/24 00:29:28;;;;;;;6.40;3.90;;;;;2.80;97855.00;;;;8385329;28;20623;-75
2022/01/24 00:33:32;;;;;;;7.13;4.20;;;;;2.80;97851.00;;;;8383215;28;20292;-75
2022/01/24 00:37:35;;;;;;;7.93;4.73;;;;;2.90;97848.00;;;;8400508;28;20253;-76
2022/01/24 00:41:46;;;;;;;6.93;4.27;;;;;3.00;97852.00;;;;8388793;28;20227;-77
2022/01/24 00:45:58;;;;;;;5.50;4.33;;;;;3.10;97850.00;;;;8389894;28;20277;-74
2022/01/24 00:58:44;;;;;;;7.07;4.43;;;;;3.20;97838.00;;;;8390095;28;20299;-77
2022/01/24 01:02:46;;;;;;;6.77;4.47;;;;;3.30;97834.00;;;;8385345;28;20658;-77
2022/01/24 01:06:52;;;;;;;8.40;4.70;;;;;3.30;97832.00;;;;8401771;28;20251;-76
2022/01/24 01:19:33;;;;;;;10.30;4.83;;;;;3.40;97827.00;;;;8325431;28;20226;-75
2022/01/24 01:23:42;;;;;;;9.27;5.00;;;;;3.50;97829.00;;;;8393796;28;20234;-76
2022/01/24 01:27:47;;;;;;;11.03;5.13;;;;;3.60;97826.00;;;;8385282;28;20241;-76
2022/01/24 01:31:59;;;;;;;7.30;5.10;;;;;3.50;97823.00;;;;8391132;28;20234;-78
2022/01/24 01:36:09;;;;;;;8.87;5.47;;;;;3.50;97821.00;;;;8387448;28;20231;-77
2022/01/24 01:52:17;;;;;;;9.07;5.50;;;;;3.60;97816.00;;;;8381495;28;20755;-78
2022/01/24 01:54:06;;;;;;;12.00;6.57;;;;;3.70;97829.00;;;;8387284;28;20233;-76
2022/01/24 01:58:12;;;;;;;8.67;5.10;;;;;3.70;97811.00;;;;8391003;28;20290;-78
2022/01/24 02:02:15;;;;;;;11.40;5.43;;;;;3.80;97809.00;;;;8389161;28;20288;-75
2022/01/24 02:06:18;;;;;;;13.87;6.13;;;;;3.90;97815.00;;;;8381678;28;20314;-76
2022/01/24 02:10:26;;;;;;;10.93;5.90;;;;;3.80;97799.00;;;;8387242;28;20711;-78
2022/01/24 02:14:35;;;;;;;10.50;5.43;;;;;3.90;97801.00;;;;8393993;28;20637;-75
2022/01/24 02:18:44;;;;;;;9.10;5.20;;;;;3.90;97799.00;;;;8387215;28;20249;-75
2022/01/24 02:23:14;;;;;;;10.73;5.70;;;;;4.00;97797.00;;;;8379689;28;21087;-75
2022/01/24 02:27:15;;;;;;;11.33;5.67;;;;;4.00;97783.00;;;;8388713;28;20275;-76
2022/01/24 02:31:37;;;;;;;9.90;5.83;;;;;4.00;97773.00;;;;8383650;28;20230;-76
2022/01/24 02:35:40;;;;;;;11.50;5.87;;;;;4.00;97780.00;;;;8380855;28;20255;-75
2022/01/24 02:39:48;;;;;;;8.27;5.40;;;;;3.90;97776.00;;;;8395446;28;20230;-74
2022/01/24 02:48:25;;;;;;;13.20;6.20;;;;;3.90;97755.00;;;;8393291;28;20236;-75
2022/01/24 02:52:28;;;;;;;9.50;5.80;;;;;3.80;97753.00;;;;8396751;28;20317;-75
2022/01/24 02:56:32;;;;;;;8.63;5.27;;;;;3.90;97751.00;;;;8408555;28;20352;-76
2022/01/24 03:00:37;;;;;;;11.07;5.93;;;;;3.90;97757.00;;;;8414737;22;20230;-78
2022/01/24 03:04:40;;;;;;;7.43;4.37;;;;;4.00;97754.00;;;;8328997;23;20658;-75
2022/01/24 03:08:43;;;;;;;6.50;4.20;;;;;4.10;97760.00;;;;8292315;28;20254;-75
2022/01/24 03:12:57;;;;;;;6.07;4.10;;;;;4.20;97747.00;;;;8319611;28;20249;-75
2022/01/24 03:17:01;;;;;;;9.30;3.83;;;;;4.20;97744.00;;;;8318821;28;20244;-76
2022/01/24 03:21:05;;;;;;;7.43;3.30;;;;;4.20;97743.00;;;;8317520;28;20298;-76
2022/01/24 03:25:08;;;;;;;6.97;3.80;;;;;4.20;97746.00;;;;8317719;28;20232;-77
2022/01/24 03:29:12;;;;;;;4.87;3.40;;;;;4.20;97739.00;;;;8319708;28;20224;-76
2022/01/24 03:33:15;;;;;;;8.23;4.80;;;;;4.20;97742.00;;;;8317908;28;20258;-77
2022/01/24 03:37:19;;;;;;;5.37;3.40;;;;;4.20;97737.00;;;;8316728;28;20259;-77
2022/01/24 03:41:22;;;;;;;4.70;3.17;;;;;4.30;97738.00;;;;8326680;28;20291;-74
2022/01/24 03:45:38;;;;;;;5.20;3.60;;;;;4.30;97731.00;;;;8316805;28;20286;-75
2022/01/24 03:49:48;;;;;;;4.50;3.43;;;;;4.30;97737.00;;;;8287004;28;20234;-75
2022/01/24 03:53:51;;;;;;;6.27;3.40;;;;;4.30;97723.00;;;;8287081;28;20227;-76
2022/01/24 03:57:54;;;;;;;5.40;3.67;;;;;4.30;97719.00;;;;8285233;28;20259;-76
2022/01/24 04:01:59;;;;;;;3.67;3.20;;;;;4.40;97721.00;;;;8291967;28;20239;-76
2022/01/24 04:06:06;;;;;;;9.80;4.47;;;;;4.30;97712.00;;;;8277144;28;20287;-75
2022/01/24 04:10:10;;;;;;;5.13;3.37;;;;;4.30;97706.00;;;;8281762;28;20295;-75
2022/01/24 04:14:28;;;;;;;4.27;2.93;;;;;4.40;97715.00;;;;8294582;28;20229;-77
2022/01/24 04:18:38;;;;;;;4.20;3.00;;;;;4.40;97712.00;;;;8289030;28;20232;-75
2022/01/24 04:22:49;;;;;;;4.50;3.50;;;;;4.40;97707.00;;;;8273089;28;20224;-75
2022/01/24 04:26:52;;;;;;;3.70;3.10;;;;;4.50;97708.00;;;;8271421;28;20765;-75
2022/01/24 04:30:55;;;;;;;7.47;3.30;;;;;4.50;97711.00;;;;8257175;28;20229;-74
2022/01/24 04:34:59;;;;;;;6.60;3.33;;;;;4.50;97708.00;;;;8255444;28;20236;-77
2022/01/24 04:39:03;;;;;;;5.63;3.50;;;;;4.50;97709.00;;;;8262568;28;20373;-77
2022/01/24 04:43:27;;;;;;;5.07;3.10;;;;;4.50;97720.00;;;;8268717;28;20622;-74
2022/01/24 04:47:36;;;;;;;4.13;3.33;;;;;4.50;97724.00;;;;8260387;28;20264;-76
2022/01/24 04:51:54;;;;;;;5.30;3.67;;;;;4.50;97724.00;;;;8268985;28;20935;-75
2022/01/24 04:55:57;;;;;;;5.73;2.87;;;;;4.50;97730.00;;;;8246852;28;20277;-73
2022/01/24 05:00:03;;;;;;;5.47;3.60;;;;;4.50;97721.00;;;;8257060;28;21067;-76
2022/01/24 05:04:06;;;;;;;5.67;3.83;;;;;4.60;97725.00;;;;8251859;28;20242;-76
2022/01/24 05:08:11;;;;;;;8.63;4.60;;;;;4.60;97725.00;;;;8266931;28;20264;-74
2022/01/24 05:12:20;;;;;;;7.67;4.50;;;;;4.60;97727.00;;;;8264516;28;20238;-74
2022/01/24 05:25:06;;;;;;;13.13;11.03;;;;;4.60;97725.00;;;;8268264;28;20304;-75
2022/01/24 05:29:09;;;;;;;6.50;3.90;;;;;4.70;97726.00;;;;8280471;28;20242;-74
2022/01/24 05:33:12;;;;;;;6.93;3.50;;;;;4.60;97724.00;;;;8291383;28;20221;-73
2022/01/24 05:37:15;;;;;;;5.03;3.57;;;;;4.60;97739.00;;;;8283418;28;20245;-76
2022/01/24 05:41:20;;;;;;;6.33;3.73;;;;;4.60;97732.00;;;;8286145;28;20232;-75
2022/01/24 05:45:23;;;;;;;4.77;3.60;;;;;4.60;97730.00;;;;8269227;28;20235;-75
2022/01/24 05:49:27;;;;;;;5.60;3.53;;;;;4.60;97741.00;;;;8257870;28;20326;-74
2022/01/24 05:53:30;;;;;;;6.20;3.90;;;;;4.60;97751.00;;;;8251835;28;20229;-73
2022/01/24 05:57:36;;;;;;;7.17;5.20;;;;;4.60;97743.00;;;;8261859;28;20233;-75
2022/01/24 06:01:39;;;;;;;5.20;3.93;;;;;4.60;97749.00;;;;8275781;28;20260;-74
2022/01/24 06:05:42;;;;;;;6.77;3.67;;;;;4.60;97742.00;;;;8267184;28;20252;-74
2022/01/24 06:09:45;;;;;;;5.47;4.00;;;;;4.60;97741.00;;;;8262109;28;20234;-76
2022/01/24 06:13:51;;;;;;;6.10;4.03;;;;;4.70;97748.00;;;;8246753;28;20638;-78
2022/01/24 06:17:54;;;;;;;6.17;4.30;;;;;4.60;97757.00;;;;8270337;28;20767;-77
2022/01/24 06:21:57;;;;;;;7.57;4.50;;;;;4.60;97755.00;;;;8267683;28;20237;-74
2022/01/24 06:25:59;;;;;;;10.37;6.33;;;;;4.50;97755.00;;;;8256119;28;20819;-75
2022/01/24 06:30:05;;;;;;;10.83;4.97;;;;;4.50;97756.00;;;;8272719;28;20282;-75
2022/01/24 06:34:08;;;;;;;12.20;5.50;;;;;4.50;97756.00;;;;8264132;28;20308;-73
2022/01/24 06:38:12;;;;;;;10.20;5.17;;;;;4.50;97768.00;;;;8282738;28;20224;-73
2022/01/24 06:42:22;;;;;;;8.80;5.67;;;;;4.50;97762.00;;;;8300621;28;20274;-73
2022/01/24 06:46:26;;;;;;;9.60;5.50;;;;;4.50;97777.00;;;;8285666;28;20291;-75
2022/01/24 06:50:29;;;;;;;6.83;4.57;;;;;4.50;97770.00;;;;8285321;28;20283;-73
2022/01/24 06:54:32;;;;;;;7.23;4.33;;;;;4.50;97778.00;;;;8285484;28;20294;-73
2022/01/24 06:58:36;;;;;;;4.93;3.80;;;;;4.60;97783.00;;;;8282254;28;20279;-72
2022/01/24 07:02:41;;;;;;;7.87;3.77;;;;;4.60;97787.00;;;;8285301;28;20305;-76
2022/01/24 07:06:44;;;;;;;11.10;4.50;;;;;4.60;97785.00;;;;8288402;28;20229;-74
2022/01/24 07:10:47;;;;;;;8.13;4.80;;;;;4.50;97789.00;;;;8286950;28;20237;-79
2022/01/24 07:14:50;;;;;;;7.27;4.57;;;;;4.60;97791.00;;;;8285375;28;20241;-74
2022/01/24 07:19:03;;;;;;;7.30;4.33;;;;;4.50;97795.00;;;;8284194;28;20237;-76
2022/01/24 07:23:06;;;;;;;8.17;4.67;;;;;4.60;97798.00;;;;8283246;28;20319;-75
2022/01/24 07:27:10;;;;;;;7.60;5.33;;;;;4.70;97810.00;;;;8285716;28;20224;-76
2022/01/24 07:31:13;;;;;;;13.77;4.70;;;;;4.70;97805.00;;;;8291159;28;20263;-75
2022/01/24 07:35:18;;;;;;;9.67;4.93;;;;;4.70;97804.00;;;;8284921;28;20246;-76
2022/01/24 07:39:21;;;;;;;8.97;5.30;;;;;4.70;97806.00;;;;8280630;28;20265;-75
2022/01/24 07:43:24;;;;;;;6.40;4.70;;;;;4.70;97806.00;;;;8281093;28;20255;-77
2022/01/24 07:47:27;;;;;;;14.63;5.60;;;;;4.80;97815.00;;;;8284819;28;20224;-77
2022/01/24 07:51:32;;;;;;;7.37;5.43;;;;;4.80;97813.00;;;;8282926;28;20229;-77
2022/01/24 07:55:35;;;;;;;8.17;4.70;;;;;4.80;97823.00;;;;8282037;28;20233;-75
2022/01/24 07:59:38;;;;;;;10.17;4.93;;;;;4.80;97824.00;;;;8282501;28;20221;-75
2022/01/24 08:03:41;;;;;;;6.40;4.40;;;;;4.90;97827.00;;;;8284647;28;20284;-75
2022/01/24 08:07:46;;;;;;;9.63;4.97;;;;;4.90;97826.00;;;;8284658;28;20233;-75
2022/01/24 08:11:49;;;;;;;7.87;4.93;;;;;4.90;97831.00;;;;8280194;28;20254;-75
2022/01/24 08:15:52;;;;;;;9.37;6.33;;;;;4.90;97833.00;;;;8281346;28;20291;-74
2022/01/24 08:19:55;;;;;;;10.40;6.80;;;;;4.90;97831.00;;;;8273609;28;20294;-75
2022/01/24 08:24:02;;;;;;;11.73;5.73;;;;;5.00;97835.00;;;;8279051;28;20225;-75
2022/01/24 08:28:05;;;;;;;6.77;4.17;;;;;5.10;97829.00;;;;8280481;28;20226;-76
2022/01/24 08:32:08;;;;;;;7.10;4.50;;;;;5.20;97826.00;;;;8281331;28;20213;-76
2022/01/24 08:36:11;;;;;;;4.47;3.93;;;;;5.30;97838.00;;;;8284187;28;20249;-75
2022/01/24 08:40:22;;;;;;;6.73;3.93;;;;;5.30;97840.00;;;;8283465;28;20222;-74
2022/01/24 08:45:41;;;;;;;4.87;3.60;;;;;5.40;97836.00;;;;8280802;28;21043;-77
2022/01/24 08:48:55;;;;;;;9.17;4.00;;;;;5.40;97847.00;;;;8282614;28;20303;-74
2022/01/24 08:53:00;;;;;;;10.27;4.63;;;;;5.60;97846.00;;;;8282049;28;20290;-75
2022/01/24 08:57:05;;;;;;;8.27;4.70;;;;;5.70;97844.00;;;;8283754;28;20283;-75
2022/01/24 09:01:08;;;;;;;7.03;4.27;;;;;5.90;97852.00;;;;8277732;28;20222;-75
2022/01/24 09:05:12;;;;;;;4.70;3.00;;;;;5.90;97840.00;;;;8281441;28;20237;-75
2022/01/24 09:09:15;;;;;;;8.00;4.20;;;;;5.90;97848.00;;;;8283133;28;20250;-76
2022/01/24 09:13:21;;;;;;;5.30;4.20;;;;;6.00;97848.00;;;;8279277;28;20222;-75
2022/01/24 09:17:24;;;;;;;7.50;4.37;;;;;6.00;97846.00;;;;8282672;28;20230;-75
2022/01/24 09:21:28;;;;;;;5.60;3.97;;;;;6.20;97854.00;;;;8284917;28;20229;-75
2022/01/24 09:25:31;;;;;;;5.77;4.07;;;;;6.30;97867.00;;;;8273455;28;20611;-79
2022/01/24 09:29:36;;;;;;;4.83;3.80;;;;;6.40;97867.00;;;;8280073;28;20241;-75
2022/01/24 09:33:39;;;;;;;8.40;4.30;;;;;6.50;97861.00;;;;8279050;28;20225;-74
2022/01/24 09:37:43;;;;;;;5.07;4.20;;;;;6.60;97865.00;;;;8281526;28;20228;-75
2022/01/24 09:41:46;;;;;;;6.67;4.90;;;;;6.70;97861.00;;;;8279471;28;20234;-73
2022/01/24 09:46:08;;;;;;;6.90;4.97;;;;;6.90;97852.00;;;;8279893;28;20284;-74
2022/01/24 09:50:14;;;;;;;5.27;4.30;;;;;7.00;97861.00;;;;8286014;28;20226;-75
2022/01/24 09:54:17;;;;;;;6.67;4.10;;;;;7.10;97859.00;;;;8280613;28;20229;-76
2022/01/24 09:58:21;;;;;;;5.07;4.03;;;;;7.10;97860.00;;;;8280947;28;20759;-76
2022/01/24 10:02:27;;;;;;;7.27;4.67;;;;;6.90;97862.00;;;;8279348;28;20599;-77
2022/01/24 10:07:04;;;;;;;3.80;3.30;;;;;6.70;97867.00;;;;8271261;28;20225;-77
2022/01/24 10:11:08;;;;;;;7.30;4.10;;;;;6.80;97861.00;;;;8254553;28;20226;-77
2022/01/24 10:19:35;;;;;;;6.17;4.67;;;;;7.00;97863.00;;;;8263856;28;20977;-79
2022/01/24 10:23:45;;;;;;;4.90;4.10;;;;;7.20;97867.00;;;;8268423;28;20276;-80
2022/01/24 10:27:49;;;;;;;4.27;3.73;;;;;7.50;97863.00;;;;8277073;28;20264;-82
2022/01/24 10:31:52;;;;;;;4.63;3.90;;;;;7.60;97863.00;;;;8264195;28;20225;-82
2022/01/24 10:35:56;;;;;;;6.43;4.13;;;;;7.80;97854.00;;;;8266167;28;20238;-81
2022/01/24 10:40:09;;;;;;;6.60;3.60;;;;;7.80;97848.00;;;;8258147;28;20835;-82
2022/01/24 10:44:12;;;;;;;7.83;4.63;;;;;7.70;97856.00;;;;8245301;28;20238;-80
2022/01/24 10:48:39;;;;;;;8.23;4.53;;;;;7.50;97850.00;;;;8289766;28;20256;-82
2022/01/24 10:52:43;;;;;;;4.40;3.30;;;;;7.60;97852.00;;;;8270512;28;21086;-80
2022/01/24 10:56:47;;;;;;;4.70;2.60;;;;;7.70;97846.00;;;;8257599;28;20278;-83
2022/01/24 11:00:52;;;;;;;2.80;2.60;;;;;7.90;97853.00;;;;8262979;28;20238;-82
2022/01/24 11:05:10;;;;;;;5.60;3.58;;;;;7.80;97832.00;;;;8259080;28;20226;-79
2022/01/24 11:09:21;;;;;;;4.90;3.00;;;;;8.00;97837.00;;;;8276372;28;20272;-79
2022/01/24 11:13:30;;;;;;;4.10;3.70;;;;;8.00;97832.00;;;;8301870;28;20232;-80
2022/01/24 11:17:35;;;;;;;8.17;3.80;;;;;7.90;97826.00;;;;8285564;28;20243;-77
2022/01/24 11:21:38;;;;;;;6.57;3.40;;;;;7.90;97811.00;;;;8253382;28;20281;-80
2022/01/24 11:25:44;;;;;;;5.87;3.33;;;;;8.00;97814.00;;;;8280549;28;20822;-79
2022/01/24 11:29:51;;;;;;;7.38;3.00;;;;;8.10;97818.00;;;;8287848;28;20316;-79
2022/01/24 11:34:01;;;;;;;3.37;2.80;;;;;8.20;97828.00;;;;8287179;28;20238;-81
2022/01/24 11:38:04;;;;;;;1.95;1.85;;;;;8.40;97825.00;;;;8283638;28;21119;-82
2022/01/24 11:42:08;;;;;;;3.13;2.00;;;;;8.60;97823.00;;;;8290827;28;20234;-83
2022/01/24 11:46:34;;;;;;;2.27;2.07;;;;;8.90;97820.00;;;;8295030;28;20324;-82
2022/01/24 11:50:38;;;;;;;2.83;2.63;;;;;9.10;97818.00;;;;8294126;28;20233;-83
2022/01/24 11:54:50;;;;;;;2.63;2.42;;;;;9.20;97817.00;;;;8281630;28;20743;-86
2022/01/24 11:59:19;;;;;;;4.38;2.97;;;;;9.30;97814.00;;;;8281787;28;20236;-85
2022/01/24 12:03:26;;;;;;;2.65;2.15;;;;;9.50;97807.00;;;;8281596;28;20284;-86
2022/01/24 12:07:30;;;;;;;2.80;2.22;;;;;9.60;97815.00;;;;8286564;28;20260;-84
2022/01/24 12:11:36;;;;;;;2.47;2.27;;;;;9.70;97807.00;;;;8285576;28;20256;-83
2022/01/24 12:16:03;;;;;;;2.85;2.50;;;;;9.80;97815.00;;;;8262681;28;20223;-81
2022/01/24 12:20:42;;;;;;;2.97;2.20;;;;;9.70;97810.00;;;;8255412;28;20670;-80
2022/01/24 12:24:46;;;;;;;2.80;2.60;;;;;9.50;97813.00;;;;8278154;28;20777;-80
2022/01/24 12:28:52;;;;;;;2.83;2.60;;;;;9.20;97802.00;;;;8284530;28;20222;-79
2022/01/24 12:33:03;;;;;;;3.53;3.05;;;;;8.80;97801.00;;;;8278187;28;20229;-78
2022/01/24 12:37:12;;;;;;;8.20;3.70;;;;;8.50;97789.00;;;;8282530;28;20226;-77
2022/01/24 12:41:17;;;;;;;5.50;3.13;;;;;8.20;97793.00;;;;8279885;28;20226;-77
2022/01/24 12:49:46;;;;;;;3.47;2.57;;;;;7.90;97771.00;;;;8281818;28;20222;-82
2022/01/24 12:53:54;;;;;;;5.55;2.92;;;;;8.00;97768.00;;;;8287514;28;20223;-84
2022/01/24 13:03:43;;;;;;;4.82;2.70;;;;;8.40;97772.00;;;;8298620;28;20234;-88
2022/01/24 13:13:20;;;;;;;4.50;2.30;;;;;8.40;97770.00;;;;8320140;28;20277;-89
2022/01/24 13:22:37;;;;;;;4.37;2.13;;;;;8.10;97775.00;;;;8326500;28;20217;-81
2022/01/24 13:27:09;;;;;;;2.30;2.10;;;;;8.00;97770.00;;;;8328469;28;20212;-83
2022/01/24 13:31:41;;;;;;;2.73;1.90;;;;;8.00;97757.00;;;;8328499;28;20282;-84
2022/01/24 13:36:16;;;;;;;2.85;1.80;;;;;7.90;97765.00;;;;8327834;28;20554;-85
2022/01/24 13:40:56;;;;;;;2.17;1.90;;;;;7.80;97759.00;;;;8328656;28;20219;-83
2022/01/24 13:45:27;;;;;;;3.37;2.27;;;;;7.70;97761.00;;;;8327952;28;20218;-83
2022/01/24 13:49:32;;;;;;;5.53;2.10;;;;;7.60;97760.00;;;;8328069;28;20213;-76
2022/01/24 13:54:06;;;;;;;3.63;2.20;;;;;7.50;97751.00;;;;8328406;28;20296;-82
2022/01/24 13:58:09;;;;;;;3.10;2.53;;;;;7.40;97752.00;;;;8327959;28;20247;-82
2022/01/24 14:02:44;;;;;;;4.70;2.77;;;;;7.20;97756.00;;;;8328413;28;20234;-86
2022/01/24 14:06:56;;;;;;;3.43;2.70;;;;;7.10;97745.00;;;;8328899;28;20263;-87
2022/01/24 14:11:24;;;;;;;5.83;2.30;;;;;7.10;97756.00;;;;8328047;28;20225;-82
2022/01/24 14:16:07;;;;;;;4.43;2.43;;;;;6.90;97755.00;;;;8327507;28;20221;-81
2022/01/24 14:20:35;;;;;;;4.73;3.00;;;;;6.90;97753.00;;;;8327298;28;20217;-79
2022/01/24 14:25:14;;;;;;;6.37;3.60;;;;;6.80;97760.00;;;;8327444;28;20223;-78
2022/01/24 14:29:48;;;;;;;10.30;3.50;;;;;6.70;97760.00;;;;8327095;28;20224;-79
2022/01/24 14:34:29;;;;;;;5.63;3.50;;;;;6.60;97766.00;;;;8328050;28;20229;-78
2022/01/24 14:39:04;;;;;;;5.67;3.83;;;;;6.50;97755.00;;;;8330804;28;20298;-84
2022/01/24 14:48:17;;;;;;;4.20;3.63;;;;;6.40;97777.00;;;;8333029;28;20225;-83
2022/01/24 14:52:47;;;;;;;7.63;3.77;;;;;6.20;97767.00;;;;8332996;28;20217;-79
2022/01/24 14:56:52;;;;;;;8.50;4.00;;;;;6.20;97769.00;;;;8332938;28;20697;-81
2022/01/24 15:01:28;;;;;;;8.63;4.17;;;;;6.10;97760.00;;;;8332065;28;20247;-81
2022/01/24 15:06:02;;;;;;;6.47;4.00;;;;;5.90;97768.00;;;;8332773;28;20601;-77
2022/01/24 15:10:39;;;;;;;5.13;4.20;;;;;5.80;97768.00;;;;8333099;28;20221;-80
2022/01/24 15:15:15;;;;;;;5.90;4.20;;;;;5.70;97767.00;;;;8332425;28;20277;-78
2022/01/24 15:24:50;;;;;;;8.13;5.17;;;;;5.50;97772.00;;;;8333140;28;20221;-79
2022/01/24 15:28:54;;;;;;;10.73;7.60;;;;;5.40;97779.00;;;;8331554;28;20252;-78
2022/01/24 15:32:58;;;;;;;9.43;6.77;;;;;5.30;97781.00;;;;8332430;28;20307;-79
2022/01/24 15:37:33;;;;;;;9.50;5.10;;;;;5.10;97779.00;;;;8331987;28;20221;-76
2022/01/24 15:42:15;;;;;;;7.27;5.10;;;;;5.00;97781.00;;;;8330538;28;20217;-78
2022/01/24 15:46:53;;;;;;;19.97;9.80;;;;;4.80;97773.00;;;;8329648;28;20265;-80
2022/01/24 15:51:21;;;;;;;12.90;7.50;;;;;4.60;97780.00;;;;8332241;28;20217;-80
2022/01/24 15:56:15;;;;;;;11.10;5.83;;;;;4.50;97778.00;;;;8331378;28;20601;-79
2022/01/24 16:00:37;;;;;;;10.30;5.90;;;;;4.30;97780.00;;;;8330855;28;20690;-78
2022/01/24 16:05:08;;;;;;;12.40;6.23;;;;;4.10;97779.00;;;;8331072;28;20617;-77
2022/01/24 16:09:11;;;;;;;9.87;5.73;;;;;4.00;97775.00;;;;8330944;28;20224;-78
2022/01/24 16:13:49;;;;;;;18.07;6.73;;;;;3.80;97771.00;;;;8330354;28;20657;-78
2022/01/24 16:18:23;;;;;;;14.80;7.80;;;;;3.70;97775.00;;;;8331428;28;20283;-79
2022/01/24 16:23:05;;;;;;;14.20;7.60;;;;;3.60;97770.00;;;;8330702;28;20224;-78
2022/01/24 16:27:08;;;;;;;16.87;7.67;;;;;3.50;97778.00;;;;8330330;28;20574;-79
2022/01/24 16:31:46;;;;;;;21.30;8.43;;;;;3.30;97771.00;;;;8330832;28;20666;-80
2022/01/24 16:36:20;;;;;;;16.77;9.47;;;;;3.20;97771.00;;;;8329838;28;20623;-80
2022/01/24 16:41:02;;;;;;;12.87;7.47;;;;;3.10;97778.00;;;;8330288;28;20225;-79
2022/01/24 16:50:10;;;;;;;16.30;7.07;;;;;2.60;97762.00;;;;8330533;28;20222;-79
2022/01/24 16:54:47;;;;;;;15.40;7.23;;;;;2.40;97771.00;;;;8328881;28;20213;-79
2022/01/24 16:59:21;;;;;;;16.90;7.47;;;;;2.20;97776.00;;;;8328984;28;20288;-79
2022/01/24 17:03:57;;;;;;;17.83;7.47;;;;;2.10;97779.00;;;;8329351;28;20289;-80
2022/01/24 17:08:38;;;;;;;18.03;7.10;;;;;2.00;97768.00;;;;8326538;28;20277;-79
2022/01/24 17:18:12;;;;;;;16.00;6.97;;;;;1.80;97777.00;;;;8329173;28;20594;-78
2022/01/24 17:22:49;;;;;;;15.47;7.17;;;;;1.70;97773.00;;;;8328030;28;20259;-77
2022/01/24 17:26:53;;;;;;;18.30;7.60;;;;;1.70;97774.00;;;;8328708;28;20254;-77
2022/01/24 17:31:27;;;;;;;19.13;7.47;;;;;1.60;97771.00;;;;8328466;28;20731;-78
2022/01/24 17:35:32;;;;;;;16.47;7.80;;;;;1.50;97781.00;;;;8327146;28;20287;-78
2022/01/24 17:39:38;;;;;;;18.77;8.30;;;;;1.50;97777.00;;;;8329540;28;20228;-78
2022/01/24 17:44:14;;;;;;;15.87;7.73;;;;;1.40;97785.00;;;;8327459;28;20269;-78
2022/01/24 17:48:48;;;;;;;17.40;7.40;;;;;1.40;97785.00;;;;8328164;28;20231;-76
2022/01/24 17:53:25;;;;;;;16.00;7.97;;;;;1.40;97783.00;;;;8328803;28;20215;-77
2022/01/24 17:58:01;;;;;;;19.67;8.63;;;;;1.30;97771.00;;;;8328167;28;20539;-78
2022/01/24 18:02:33;;;;;;;17.37;8.90;;;;;1.40;97784.00;;;;8327517;28;20214;-77
2022/01/24 18:07:11;;;;;;;16.83;8.57;;;;;1.40;97779.00;;;;8328310;28;20224;-78
2022/01/24 18:11:46;;;;;;;14.07;7.80;;;;;1.40;97777.00;;;;8330228;28;20217;-77
2022/01/24 18:16:19;;;;;;;17.37;8.00;;;;;1.30;97771.00;;;;8334627;28;20284;-75
2022/01/24 18:20:57;;;;;;;18.63;8.97;;;;;1.30;97760.00;;;;8334172;28;20223;-76
2022/01/24 18:25:35;;;;;;;19.13;8.53;;;;;1.20;97758.00;;;;8334029;28;20218;-75
2022/01/24 18:30:08;;;;;;;20.20;9.07;;;;;1.10;97762.00;;;;8334407;28;20703;-74
2022/01/24 18:34:45;;;;;;;20.97;9.70;;;;;1.00;97761.00;;;;8334321;28;20552;-74
2022/01/24 18:39:21;;;;;;;21.00;9.37;;;;;1.00;97776.00;;;;8333736;28;20227;-74
2022/01/24 18:44:01;;;;;;;22.13;9.50;;;;;0.90;97774.00;;;;8333317;28;20259;-72
2022/01/24 18:48:35;;;;;;;16.70;9.30;;;;;0.80;97772.00;;;;8334101;28;20229;-72
2022/01/24 18:53:12;;;;;;;21.50;10.03;;;;;0.70;97767.00;;;;8331967;28;20217;-73
2022/01/24 18:57:49;;;;;;;20.57;9.60;;;;;0.70;97774.00;;;;8333717;28;20218;-77
2022/01/24 19:02:25;;;;;;;26.90;10.60;;;;;0.70;97767.00;;;;8329520;28;20213;-76
2022/01/24 19:06:59;;;;;;;28.90;11.17;;;;;0.60;97753.00;;;;8332138;28;20213;-75
2022/01/24 19:11:39;;;;;;;21.50;10.57;;;;;0.50;97761.00;;;;8333068;28;20242;-74
2022/01/24 19:16:16;;;;;;;27.77;11.50;;;;;0.50;97762.00;;;;8329631;28;20705;-74
2022/01/24 19:25:30;;;;;;;25.23;11.57;;;;;0.50;97769.00;;;;8331692;28;20299;-76
2022/01/24 19:30:04;;;;;;;23.73;11.83;;;;;0.60;97765.00;;;;8332973;28;20249;-76
2022/01/24 19:34:41;;;;;;;24.93;11.80;;;;;0.60;97773.00;;;;8331993;28;20296;-75
2022/01/24 19:39:18;;;;;;;25.23;11.80;;;;;0.60;97780.00;;;;8331378;28;20238;-76
2022/01/24 19:43:56;;;;;;;28.20;13.00;;;;;0.60;97775.00;;;;8331873;28;20219;-73
2022/01/24 19:48:30;;;;;;;30.37;12.27;;;;;0.60;97779.00;;;;8332496;28;20213;-78
2022/01/24 19:53:08;;;;;;;27.57;12.37;;;;;0.70;97785.00;;;;8331413;28;20227;-78
2022/01/24 19:57:48;;;;;;;30.73;13.97;;;;;0.60;97781.00;;;;8331521;28;20254;-78
2022/01/24 20:02:20;;;;;;;26.63;13.40;;;;;0.50;97781.00;;;;8331786;28;20237;-78
2022/01/24 20:06:55;;;;;;;33.90;14.73;;;;;0.40;97776.00;;;;8331390;28;20678;-80
2022/01/24 20:11:29;;;;;;;35.33;17.53;;;;;0.40;97784.00;;;;8330681;28;20584;-77
2022/01/24 20:16:06;;;;;;;31.53;15.40;;;;;0.30;97784.00;;;;8325901;28;20632;-78
2022/01/24 20:20:44;;;;;;;28.07;14.50;;;;;0.30;97783.00;;;;8330978;28;20219;-77
2022/01/24 20:25:18;;;;;;;33.17;13.67;;;;;0.30;97776.00;;;;8329863;28;20221;-81
2022/01/24 20:29:55;;;;;;;30.53;13.90;;;;;0.40;97771.00;;;;8330544;28;20613;-80
2022/01/24 20:34:32;;;;;;;30.63;14.20;;;;;0.40;97768.00;;;;8329664;28;20222;-76
2022/01/24 20:39:11;;;;;;;35.77;16.23;;;;;0.40;97771.00;;;;8329933;28;20230;-78
2022/01/24 20:43:44;;;;;;;34.73;14.93;;;;;0.40;97747.00;;;;8329336;28;20234;-80
2022/01/24 20:48:21;;;;;;;32.63;14.63;;;;;0.30;97750.00;;;;8330383;28;20276;-79
2022/01/24 20:52:58;;;;;;;37.23;15.37;;;;;0.20;97742.00;;;;8329682;28;20227;-78
2022/01/24 20:57:30;;;;;;;37.73;14.80;;;;;0.20;97744.00;;;;8329546;28;20221;-75
2022/01/24 21:02:11;;;;;;;32.57;14.07;;;;;0.10;97742.00;;;;8329774;28;20589;-75
2022/01/24 21:06:15;;;;;;;35.47;14.80;;;;;0.10;97748.00;;;;8329618;28;20554;-75
2022/01/24 21:10:22;;;;;;;30.40;14.20;;;;;0.00;97749.00;;;;8328768;28;20609;-75
2022/01/24 21:19:58;;;;;;;29.93;14.17;;;;;-0.10;97748.00;;;;8328785;28;20314;-72
2022/01/24 21:24:32;;;;;;;29.20;14.30;;;;;-0.10;97745.00;;;;8328466;28;20280;-74
2022/01/24 21:29:09;;;;;;;27.27;12.23;;;;;-0.10;97748.00;;;;8327677;28;20217;-73
2022/01/24 21:33:57;;;;;;;33.50;14.07;;;;;-0.10;97751.00;;;;8328975;28;20295;-73
2022/01/24 21:38:01;;;;;;;26.03;13.23;;;;;0.00;97744.00;;;;8329003;28;20569;-73
2022/01/24 21:42:35;;;;;;;29.80;14.57;;;;;0.00;97742.00;;;;8328475;28;20218;-69
2022/01/24 21:47:14;;;;;;;28.10;12.87;;;;;0.00;97748.00;;;;8328202;28;20221;-73
2022/01/24 21:51:45;;;;;;;28.00;12.37;;;;;0.00;97745.00;;;;8328453;28;20587;-73
2022/01/24 21:56:22;;;;;;;25.30;11.83;;;;;0.00;97748.00;;;;8328504;28;20230;-72
2022/01/24 22:00:28;;;;;;;26.37;12.37;;;;;0.00;97748.00;;;;8327123;28;20221;-71
2022/01/24 22:05:03;;;;;;;23.60;11.57;;;;;0.00;97750.00;;;;8328343;28;20233;-71
2022/01/24 22:09:06;;;;;;;28.10;13.00;;;;;0.00;97748.00;;;;8327639;28;20770;-71
2022/01/24 22:13:10;;;;;;;23.77;12.00;;;;;0.00;97745.00;;;;8327306;28;20214;-72
2022/01/24 22:17:15;;;;;;;24.30;12.57;;;;;0.00;97750.00;;;;8328585;28;20221;-72
2022/01/24 22:21:49;;;;;;;23.87;11.57;;;;;-0.10;97750.00;;;;8327288;28;20306;-71
2022/01/24 22:26:28;;;;;;;24.07;12.23;;;;;-0.20;97757.00;;;;8327352;28;20225;-72
2022/01/24 22:31:01;;;;;;;24.00;12.50;;;;;-0.20;97750.00;;;;8323868;28;20223;-71
2022/01/24 22:35:39;;;;;;;26.50;12.40;;;;;-0.20;97754.00;;;;8327165;28;20243;-72
2022/01/24 22:40:13;;;;;;;27.40;12.77;;;;;-0.30;97748.00;;;;8327224;28;20234;-72
2022/01/24 22:44:16;;;;;;;29.53;13.27;;;;;-0.30;97757.00;;;;8327339;28;20709;-72
2022/01/24 22:48:54;;;;;;;28.10;13.47;;;;;-0.50;97760.00;;;;8327737;28;20710;-73
2022/01/24 22:52:59;;;;;;;27.97;14.23;;;;;-0.50;97757.00;;;;8326879;28;20620;-72
2022/01/24 22:57:03;;;;;;;29.40;14.23;;;;;-0.50;97762.00;;;;8331925;28;20234;-72
2022/01/24 23:01:37;;;;;;;30.67;14.00;;;;;-0.40;97768.00;;;;8333016;28;20225;-73
2022/01/24 23:06:14;;;;;;;25.30;12.90;;;;;-0.20;97760.00;;;;8332514;28;20242;-73
2022/01/24 23:10:58;;;;;;;27.23;13.30;;;;;0.00;97760.00;;;;8332730;28;20222;-73